Time;durP1;ratioP1;P1;durP2;ratioP2;P2;SDS_P1;SDS_P2;PMS_P1;PMS_P2;Temp;Humidity;BMP_temperature;BMP_pressure;BME280_temperature;BME280_humidity;BME280_pressure;Samples;Min_cycle;Max_cycle;Signal;HPM_P1;HPM_P2
2020/12/28 00:01:10;;;;;;;0.40;0.15;;;7.60;72.30;;;;;;10052508;28;20072;-74
2020/12/28 00:06:01;;;;;;;0.55;0.10;;;7.60;72.50;;;;;;10061946;28;20025;-75
2020/12/28 00:10:51;;;;;;;0.40;0.20;;;7.50;72.50;;;;;;10053984;28;20025;-75
2020/12/28 00:15:43;;;;;;;0.98;0.20;;;7.50;72.60;;;;;;10051419;28;20017;-75
2020/12/28 00:20:34;;;;;;;0.08;0.08;;;7.50;72.70;;;;;;10048809;28;20053;-75
2020/12/28 00:25:26;;;;;;;0.28;0.20;;;7.50;73.00;;;;;;10047495;28;20037;-75
2020/12/28 00:30:17;;;;;;;1.13;0.47;;;7.50;73.10;;;;;;10049229;28;20049;-75
2020/12/28 00:35:10;;;;;;;0.20;0.10;;;7.40;73.20;;;;;;10054591;28;20037;-75
2020/12/28 00:40:02;;;;;;;0.10;0.10;;;7.40;73.60;;;;;;10050870;28;20033;-76
2020/12/28 00:44:53;;;;;;;0.20;0.10;;;7.30;73.80;;;;;;10051731;28;20163;-75
2020/12/28 00:49:43;;;;;;;0.30;0.30;;;7.30;74.00;;;;;;10055377;28;20539;-74
2020/12/28 00:54:34;;;;;;;0.32;0.25;;;7.30;74.70;;;;;;10050552;28;20060;-74
2020/12/28 00:59:25;;;;;;;0.68;0.30;;;7.30;74.50;;;;;;10042492;28;20104;-76
2020/12/28 01:04:15;;;;;;;0.52;0.20;;;7.30;74.40;;;;;;10043481;28;20383;-71
2020/12/28 01:09:07;;;;;;;1.55;0.20;;;7.30;74.50;;;;;;10042941;28;20082;-69
2020/12/28 01:13:57;;;;;;;0.28;0.25;;;7.30;74.40;;;;;;10044241;28;20113;-75
2020/12/28 01:18:48;;;;;;;0.57;0.10;;;7.30;74.40;;;;;;10051442;28;20130;-76
2020/12/28 01:23:38;;;;;;;0.30;0.10;;;7.30;74.40;;;;;;10053387;28;20049;-74
2020/12/28 01:28:29;;;;;;;0.20;0.20;;;7.30;74.40;;;;;;10047638;28;20494;-75
2020/12/28 01:33:19;;;;;;;0.38;0.20;;;7.30;74.40;;;;;;10049851;28;20515;-73
2020/12/28 01:38:10;;;;;;;0.08;0.08;;;7.30;74.60;;;;;;10056550;28;20037;-74
2020/12/28 01:43:00;;;;;;;0.10;0.10;;;7.30;74.50;;;;;;10055651;28;20037;-74
2020/12/28 01:47:51;;;;;;;0.20;0.20;;;7.30;74.50;;;;;;10057520;28;20553;-74
2020/12/28 01:52:42;;;;;;;0.80;0.20;;;7.30;74.50;;;;;;10051911;28;20396;-74
2020/12/28 01:57:34;;;;;;;0.40;0.20;;;7.30;74.60;;;;;;10052757;28;20061;-71
2020/12/28 02:02:27;;;;;;;1.45;0.13;;;7.30;74.50;;;;;;10048033;28;20038;-71
2020/12/28 02:07:20;;;;;;;0.22;0.20;;;7.30;74.50;;;;;;10046452;28;20062;-68
2020/12/28 02:12:10;;;;;;;0.20;0.20;;;7.30;74.50;;;;;;10054619;28;20466;-74
2020/12/28 02:17:01;;;;;;;0.35;0.20;;;7.40;74.70;;;;;;10052826;28;20061;-74
2020/12/28 02:21:58;;;;;;;0.30;0.20;;;7.30;74.50;;;;;;10052894;28;20060;-75
2020/12/28 02:26:48;;;;;;;0.20;0.10;;;7.40;74.60;;;;;;10059233;28;20514;-75
2020/12/28 02:31:39;;;;;;;0.70;0.50;;;7.40;74.80;;;;;;10058271;28;20060;-75
2020/12/28 02:36:31;;;;;;;0.30;0.22;;;7.40;74.80;;;;;;10059342;28;20040;-75
2020/12/28 02:41:25;;;;;;;1.08;0.20;;;7.40;74.90;;;;;;10052016;28;20045;-75
2020/12/28 02:46:15;;;;;;;0.10;0.10;;;7.40;75.00;;;;;;10046449;28;20025;-75
2020/12/28 02:51:06;;;;;;;0.30;0.30;;;7.30;75.10;;;;;;10054164;28;20108;-75
2020/12/28 02:55:56;;;;;;;0.15;0.15;;;7.30;75.10;;;;;;10049675;28;20044;-75
2020/12/28 03:00:47;;;;;;;0.28;0.20;;;7.30;75.20;;;;;;10053277;28;20037;-75
2020/12/28 03:05:37;;;;;;;0.40;0.22;;;7.30;75.40;;;;;;10049483;28;20033;-76
2020/12/28 03:10:28;;;;;;;0.20;0.17;;;7.30;75.40;;;;;;10050903;28;20037;-76
2020/12/28 03:15:19;;;;;;;0.35;0.22;;;7.40;75.50;;;;;;10051159;28;20028;-76
2020/12/28 03:20:09;;;;;;;0.40;0.30;;;7.30;75.60;;;;;;10049162;28;20054;-74
2020/12/28 03:25:00;;;;;;;0.20;0.10;;;7.30;75.90;;;;;;10055026;28;20842;-74
2020/12/28 03:29:50;;;;;;;0.30;0.15;;;7.20;76.00;;;;;;10058278;28;20119;-74
2020/12/28 03:34:41;;;;;;;0.20;0.20;;;7.30;75.90;;;;;;10053509;28;20513;-75
2020/12/28 03:39:33;;;;;;;0.47;0.20;;;7.20;76.20;;;;;;10049161;28;20076;-73
2020/12/28 03:44:24;;;;;;;0.17;0.17;;;7.20;76.20;;;;;;10049934;28;20049;-75
2020/12/28 03:49:14;;;;;;;0.88;0.30;;;7.20;76.30;;;;;;10051074;28;20051;-74
2020/12/28 03:54:05;;;;;;;0.10;0.10;;;7.10;76.40;;;;;;10050732;28;20050;-75
2020/12/28 03:58:55;;;;;;;0.32;0.20;;;7.10;76.20;;;;;;10046072;28;20044;-76
2020/12/28 04:03:46;;;;;;;0.32;0.10;;;7.10;76.50;;;;;;10051860;28;20068;-75
2020/12/28 04:08:36;;;;;;;0.38;0.30;;;7.10;76.50;;;;;;10052082;28;20435;-74
2020/12/28 04:13:27;;;;;;;0.10;0.10;;;7.20;76.50;;;;;;10054003;28;20112;-74
2020/12/28 04:18:18;;;;;;;0.20;0.20;;;7.10;76.50;;;;;;10047558;28;20145;-74
2020/12/28 04:23:08;;;;;;;0.10;0.10;;;7.10;77.00;;;;;;10051524;28;20037;-74
2020/12/28 04:27:59;;;;;;;0.20;0.20;;;7.10;77.00;;;;;;10046324;28;20053;-75
2020/12/28 04:32:50;;;;;;;0.88;0.30;;;7.10;76.90;;;;;;10047299;28;20033;-74
2020/12/28 04:37:40;;;;;;;0.20;0.20;;;7.00;77.00;;;;;;10051092;28;20040;-69
2020/12/28 04:42:31;;;;;;;0.20;0.10;;;7.00;77.10;;;;;;10048973;28;20044;-68
2020/12/28 04:47:23;;;;;;;0.45;0.20;;;7.00;77.30;;;;;;10045535;28;20029;-69
2020/12/28 04:52:14;;;;;;;0.15;0.15;;;7.00;77.60;;;;;;10051168;28;20063;-68
2020/12/28 04:57:06;;;;;;;0.60;0.60;;;7.00;77.70;;;;;;10043863;28;20407;-68
2020/12/28 05:01:56;;;;;;;0.15;0.15;;;7.00;77.60;;;;;;10041384;28;20038;-68
2020/12/28 05:07:02;;;;;;;1.40;0.20;;;7.00;77.90;;;;;;10046774;28;20025;-69
2020/12/28 05:11:57;;;;;;;0.25;0.20;;;7.00;78.10;;;;;;10044983;28;20490;-69
2020/12/28 05:16:49;;;;;;;0.73;0.40;;;7.00;78.30;;;;;;10047255;28;20037;-69
2020/12/28 05:21:42;;;;;;;0.22;0.20;;;7.00;78.30;;;;;;10043318;28;20486;-69
2020/12/28 05:26:33;;;;;;;0.43;0.35;;;7.00;78.50;;;;;;10042611;28;20033;-70
2020/12/28 05:31:24;;;;;;;0.45;0.32;;;7.10;78.70;;;;;;10049364;28;20419;-69
2020/12/28 05:36:17;;;;;;;1.05;0.55;;;7.10;78.50;;;;;;10048729;28;20036;-69
2020/12/28 05:41:07;;;;;;;1.30;0.40;;;7.10;78.50;;;;;;10043358;28;20051;-70
2020/12/28 05:45:58;;;;;;;0.95;0.30;;;7.10;78.60;;;;;;10041478;28;20444;-69
2020/12/28 05:50:55;;;;;;;0.55;0.30;;;7.10;78.70;;;;;;10039255;28;20033;-70
2020/12/28 05:55:46;;;;;;;1.83;0.50;;;7.10;78.90;;;;;;10046028;28;20514;-69
2020/12/28 06:00:37;;;;;;;0.30;0.30;;;7.10;79.10;;;;;;10046146;28;20037;-69
2020/12/28 06:05:28;;;;;;;0.25;0.20;;;7.00;79.10;;;;;;10040328;28;20099;-70
2020/12/28 06:10:19;;;;;;;0.30;0.30;;;7.00;79.10;;;;;;10042713;28;20037;-69
2020/12/28 06:15:17;;;;;;;0.77;0.60;;;7.00;79.20;;;;;;10047872;28;20029;-70
2020/12/28 06:20:08;;;;;;;0.30;0.20;;;6.90;79.40;;;;;;10039909;28;20056;-69
2020/12/28 06:25:07;;;;;;;0.25;0.25;;;6.90;79.80;;;;;;10040289;28;20023;-69
2020/12/28 06:30:15;;;;;;;0.47;0.40;;;6.80;79.70;;;;;;10050595;28;20107;-69
2020/12/28 06:35:11;;;;;;;0.45;0.38;;;6.70;79.90;;;;;;10049829;28;20476;-69
2020/12/28 06:40:02;;;;;;;1.05;0.50;;;6.70;79.70;;;;;;10047919;28;20029;-69
2020/12/28 06:44:53;;;;;;;0.50;0.50;;;6.70;79.90;;;;;;10052396;28;20029;-70
2020/12/28 06:49:43;;;;;;;1.95;0.50;;;6.70;80.40;;;;;;10046076;28;20030;-70
2020/12/28 06:54:34;;;;;;;0.63;0.30;;;6.70;80.00;;;;;;10051162;28;20029;-69
2020/12/28 06:59:26;;;;;;;1.27;0.50;;;6.80;79.80;;;;;;10044626;28;20641;-70
2020/12/28 07:04:17;;;;;;;0.88;0.40;;;6.90;79.80;;;;;;10043107;28;20491;-69
2020/12/28 07:09:08;;;;;;;0.52;0.30;;;7.00;79.80;;;;;;10045604;28;20034;-68
2020/12/28 07:14:05;;;;;;;0.28;0.28;;;6.90;80.00;;;;;;10049344;28;20113;-69
2020/12/28 07:19:02;;;;;;;0.22;0.22;;;6.80;80.30;;;;;;10046989;28;20132;-69
2020/12/28 07:23:54;;;;;;;0.20;0.20;;;6.70;80.40;;;;;;10045968;28;20037;-69
2020/12/28 07:28:46;;;;;;;0.30;0.30;;;6.70;80.50;;;;;;10046305;28;20029;-69
2020/12/28 07:33:50;;;;;;;0.30;0.30;;;6.80;80.50;;;;;;10049511;28;20135;-70
2020/12/28 07:38:49;;;;;;;0.20;0.20;;;6.90;80.40;;;;;;10044566;28;20033;-70
2020/12/28 07:43:46;;;;;;;0.22;0.22;;;6.90;80.20;;;;;;10044475;28;20033;-70
2020/12/28 07:48:37;;;;;;;0.73;0.32;;;6.80;80.20;;;;;;10043505;28;20028;-70
2020/12/28 07:53:35;;;;;;;1.10;0.50;;;6.80;80.20;;;;;;10047393;28;20029;-70
2020/12/28 07:58:44;;;;;;;1.42;0.50;;;6.90;80.20;;;;;;10047995;28;20436;-70
2020/12/28 08:03:50;;;;;;;0.20;0.20;;;7.00;80.10;;;;;;10049050;28;20652;-69
2020/12/28 08:08:42;;;;;;;0.25;0.20;;;7.00;80.20;;;;;;10051164;28;20128;-69
2020/12/28 08:13:34;;;;;;;0.35;0.22;;;7.00;80.20;;;;;;10051798;28;20042;-70
2020/12/28 08:18:26;;;;;;;1.13;0.40;;;7.10;79.90;;;;;;10046056;28;20040;-69
2020/12/28 08:23:25;;;;;;;0.45;0.35;;;7.20;79.90;;;;;;10046110;28;20109;-70
2020/12/28 08:28:16;;;;;;;1.67;0.77;;;7.10;79.80;;;;;;10047152;28;20079;-70
2020/12/28 08:33:06;;;;;;;0.65;0.20;;;7.30;79.80;;;;;;10043563;28;20399;-70
2020/12/28 08:37:57;;;;;;;0.22;0.15;;;7.40;79.70;;;;;;10047306;28;20442;-70
2020/12/28 08:42:53;;;;;;;0.60;0.28;;;7.30;80.20;;;;;;10048983;28;20504;-69
2020/12/28 08:47:44;;;;;;;0.80;0.50;;;7.40;79.70;;;;;;10038284;28;20051;-69
2020/12/28 08:52:35;;;;;;;0.40;0.40;;;7.60;79.40;;;;;;10047148;28;20038;-69
2020/12/28 08:57:29;;;;;;;0.47;0.38;;;7.70;79.10;;;;;;10042754;28;20037;-69
2020/12/28 09:02:21;;;;;;;1.05;0.73;;;7.90;78.70;;;;;;10044361;28;20061;-69
2020/12/28 09:07:14;;;;;;;1.05;0.55;;;7.90;78.60;;;;;;10044284;28;20052;-69
2020/12/28 09:12:04;;;;;;;1.55;0.82;;;7.90;78.60;;;;;;10043691;28;20519;-69
2020/12/28 09:16:55;;;;;;;0.75;0.40;;;7.90;78.70;;;;;;10045607;28;20044;-69
2020/12/28 09:21:45;;;;;;;0.70;0.50;;;7.90;78.90;;;;;;10039341;28;20060;-69
2020/12/28 09:26:36;;;;;;;0.45;0.38;;;7.90;78.60;;;;;;10046225;28;20030;-70
2020/12/28 09:31:27;;;;;;;0.40;0.40;;;7.90;78.50;;;;;;10042228;28;20037;-70
2020/12/28 09:36:18;;;;;;;1.55;0.60;;;7.80;78.60;;;;;;10038616;28;20029;-69
2020/12/28 09:41:09;;;;;;;0.60;0.35;;;7.80;78.60;;;;;;10043591;28;20126;-69
2020/12/28 09:46:00;;;;;;;1.63;0.63;;;7.80;78.40;;;;;;10046022;28;20038;-70
2020/12/28 09:50:50;;;;;;;0.30;0.30;;;7.80;78.50;;;;;;10041588;28;20034;-70
2020/12/28 09:55:41;;;;;;;0.47;0.28;;;7.70;78.30;;;;;;10043783;28;20026;-70
2020/12/28 10:00:31;;;;;;;1.67;0.30;;;7.70;78.50;;;;;;10048727;28;20070;-71
2020/12/28 10:05:22;;;;;;;0.70;0.40;;;7.70;78.30;;;;;;10040865;28;20102;-71
2020/12/28 10:10:12;;;;;;;0.50;0.50;;;7.80;78.40;;;;;;10057636;28;20037;-71
2020/12/28 10:15:07;;;;;;;0.40;0.40;;;7.80;78.10;;;;;;10050526;28;20029;-71
2020/12/28 10:19:57;;;;;;;0.63;0.50;;;7.80;78.20;;;;;;10052928;28;20495;-69
2020/12/28 10:24:50;;;;;;;2.50;0.75;;;7.70;77.90;;;;;;10049127;28;20089;-69
2020/12/28 10:29:41;;;;;;;1.98;0.93;;;7.50;78.50;;;;;;10044706;28;20103;-69
2020/12/28 10:34:31;;;;;;;3.50;1.00;;;7.20;79.00;;;;;;10050755;28;20529;-70
2020/12/28 10:39:22;;;;;;;1.40;1.00;;;6.90;80.60;;;;;;10044501;28;20033;-71
2020/12/28 10:44:12;;;;;;;2.28;1.02;;;6.70;80.90;;;;;;10049032;28;20143;-70
2020/12/28 10:49:07;;;;;;;0.82;0.70;;;6.50;81.60;;;;;;10047768;28;20033;-69
2020/12/28 10:53:58;;;;;;;1.65;0.90;;;6.40;82.30;;;;;;10050167;28;20053;-70
2020/12/28 10:58:48;;;;;;;2.45;2.28;;;6.40;82.30;;;;;;10046094;28;20049;-70
2020/12/28 11:03:39;;;;;;;2.05;1.08;;;6.30;83.00;;;;;;10032606;28;20045;-70
2020/12/28 11:08:30;;;;;;;1.10;0.93;;;6.40;82.80;;;;;;10053496;28;20048;-73
2020/12/28 11:13:21;;;;;;;0.82;0.70;;;6.40;83.00;;;;;;10050315;28;20037;-73
2020/12/28 11:18:11;;;;;;;2.60;1.05;;;6.40;83.00;;;;;;10047067;28;20214;-71
2020/12/28 11:23:03;;;;;;;1.67;1.15;;;6.40;82.80;;;;;;10049415;28;20038;-74
2020/12/28 11:27:54;;;;;;;0.88;0.85;;;6.50;83.30;;;;;;10045414;28;20049;-74
2020/12/28 11:32:46;;;;;;;2.13;0.95;;;6.50;83.30;;;;;;10055338;28;20029;-74
2020/12/28 11:37:36;;;;;;;2.53;1.00;;;6.60;83.30;;;;;;10043784;28;20096;-74
2020/12/28 11:42:30;;;;;;;2.10;1.08;;;6.70;83.20;;;;;;10052363;28;20104;-73
2020/12/28 11:47:21;;;;;;;3.25;1.20;;;6.60;83.50;;;;;;10050743;28;20387;-70
2020/12/28 11:52:15;;;;;;;2.30;0.95;;;6.60;83.80;;;;;;10045043;28;20029;-70
2020/12/28 11:57:06;;;;;;;0.75;0.70;;;6.70;83.90;;;;;;10042412;28;20033;-71
2020/12/28 12:01:56;;;;;;;2.63;1.00;;;6.80;83.90;;;;;;10044743;28;20039;-70
2020/12/28 12:06:51;;;;;;;2.30;0.77;;;6.90;84.00;;;;;;10042685;28;20055;-72
2020/12/28 12:11:43;;;;;;;1.73;0.90;;;7.00;83.90;;;;;;10046030;28;20776;-70
2020/12/28 12:16:34;;;;;;;3.20;1.20;;;7.10;84.00;;;;;;10039497;28;20037;-70
2020/12/28 12:21:25;;;;;;;1.88;0.90;;;7.30;83.90;;;;;;10041758;28;20947;-69
2020/12/28 12:26:19;;;;;;;1.52;1.10;;;7.40;83.60;;;;;;10044790;28;20083;-69
2020/12/28 12:31:11;;;;;;;0.43;0.38;;;7.40;83.70;;;;;;10031174;28;20038;-69
2020/12/28 12:36:02;;;;;;;2.83;0.77;;;7.30;83.50;;;;;;10045000;28;20022;-69
2020/12/28 12:40:53;;;;;;;0.38;0.35;;;7.40;83.40;;;;;;10048060;28;20048;-70
2020/12/28 12:45:43;;;;;;;1.20;0.38;;;7.50;82.90;;;;;;10042550;28;20485;-72
2020/12/28 12:50:34;;;;;;;0.98;0.40;;;7.70;82.70;;;;;;10043745;28;20123;-70
2020/12/28 12:55:25;;;;;;;0.70;0.47;;;7.70;82.20;;;;;;10051712;28;20106;-70
2020/12/28 13:00:19;;;;;;;0.30;0.30;;;7.70;82.10;;;;;;10041247;28;20022;-69
2020/12/28 13:05:10;;;;;;;0.47;0.35;;;7.70;82.50;;;;;;10040005;28;20037;-69
2020/12/28 13:10:01;;;;;;;1.20;0.40;;;7.50;81.90;;;;;;10047215;28;20052;-69
2020/12/28 13:14:53;;;;;;;0.63;0.47;;;7.50;81.90;;;;;;10040506;28;20391;-70
2020/12/28 13:19:45;;;;;;;0.75;0.60;;;7.70;81.40;;;;;;10035683;28;20050;-70
2020/12/28 13:24:35;;;;;;;1.95;0.73;;;7.80;81.10;;;;;;10043322;28;20071;-69
2020/12/28 13:29:28;;;;;;;1.35;0.60;;;7.90;80.80;;;;;;10045321;28;20080;-70
2020/12/28 13:34:19;;;;;;;1.90;0.65;;;7.70;80.80;;;;;;10046254;28;20091;-69
2020/12/28 13:39:10;;;;;;;0.50;0.45;;;7.50;81.10;;;;;;10047775;28;20054;-70
2020/12/28 13:44:01;;;;;;;1.73;0.73;;;7.40;81.30;;;;;;10051615;28;20453;-70
2020/12/28 13:48:51;;;;;;;2.17;1.17;;;7.30;81.40;;;;;;10051859;28;20056;-69
2020/12/28 13:53:42;;;;;;;1.00;0.60;;;7.40;80.80;;;;;;10048209;28;20030;-72
2020/12/28 13:58:33;;;;;;;0.85;0.80;;;7.50;80.80;;;;;;10067486;28;20329;-69
2020/12/28 14:03:23;;;;;;;1.63;0.98;;;7.50;80.30;;;;;;10046523;28;20452;-67
2020/12/28 14:08:14;;;;;;;1.30;0.60;;;7.50;80.20;;;;;;10048875;28;20510;-67
2020/12/28 14:13:04;;;;;;;1.40;0.70;;;7.60;80.00;;;;;;10045696;28;20471;-69
2020/12/28 14:17:55;;;;;;;0.93;0.52;;;7.50;79.30;;;;;;10042400;28;20060;-68
2020/12/28 14:22:46;;;;;;;1.42;0.50;;;7.40;79.40;;;;;;10049811;28;20037;-72
2020/12/28 14:27:36;;;;;;;1.85;0.40;;;7.30;79.30;;;;;;10051507;28;20022;-72
2020/12/28 14:32:27;;;;;;;1.20;0.60;;;7.30;79.50;;;;;;10044424;28;20072;-72
2020/12/28 14:37:17;;;;;;;1.02;0.75;;;7.30;79.50;;;;;;10047098;28;20041;-72
2020/12/28 14:42:08;;;;;;;1.08;0.80;;;7.40;78.60;;;;;;10046490;28;20041;-74
2020/12/28 14:46:58;;;;;;;1.40;0.50;;;7.40;77.80;;;;;;10029539;28;20038;-72
2020/12/28 14:51:49;;;;;;;1.30;0.45;;;7.40;76.90;;;;;;10054177;28;20040;-72
2020/12/28 14:56:40;;;;;;;1.90;0.47;;;7.30;76.50;;;;;;10046888;28;20041;-72
2020/12/28 15:01:32;;;;;;;0.60;0.32;;;7.10;76.00;;;;;;10048326;28;20037;-72
2020/12/28 15:06:22;;;;;;;0.55;0.40;;;7.00;75.70;;;;;;10049803;28;20033;-72
2020/12/28 15:11:13;;;;;;;0.45;0.35;;;7.00;75.30;;;;;;10046401;28;20034;-72
2020/12/28 15:16:04;;;;;;;0.73;0.30;;;6.70;74.40;;;;;;10045084;28;20072;-73
2020/12/28 15:20:56;;;;;;;0.13;0.13;;;6.60;72.90;;;;;;10049607;28;20046;-73
2020/12/28 15:25:47;;;;;;;0.95;0.40;;;6.60;71.90;;;;;;10045314;28;20036;-74
2020/12/28 15:30:37;;;;;;;1.10;0.45;;;6.60;71.50;;;;;;10050467;28;20033;-70
2020/12/28 15:35:28;;;;;;;0.90;0.90;;;6.60;71.30;;;;;;10041821;28;20069;-73
2020/12/28 15:40:19;;;;;;;2.00;0.68;;;6.40;71.40;;;;;;10051437;28;20037;-73
2020/12/28 15:45:11;;;;;;;1.58;0.80;;;6.30;71.70;;;;;;10043286;28;20021;-73
2020/12/28 15:50:02;;;;;;;0.50;0.47;;;6.30;71.70;;;;;;10048491;28;20464;-70
2020/12/28 15:54:53;;;;;;;0.93;0.50;;;6.30;71.80;;;;;;10026971;28;20045;-72
2020/12/28 15:59:44;;;;;;;0.40;0.40;;;6.20;72.00;;;;;;10041688;28;20037;-72
2020/12/28 16:04:34;;;;;;;1.15;0.65;;;6.20;72.40;;;;;;10044936;28;20034;-74
2020/12/28 16:09:25;;;;;;;1.63;1.17;;;6.30;72.60;;;;;;10047788;28;20056;-73
2020/12/28 16:14:16;;;;;;;1.33;0.60;;;6.40;72.80;;;;;;10028248;28;20119;-72
2020/12/28 16:19:07;;;;;;;2.53;0.60;;;6.30;72.80;;;;;;10048636;28;20049;-73
2020/12/28 16:23:58;;;;;;;2.33;0.63;;;6.20;73.10;;;;;;10037138;28;20041;-68
2020/12/28 16:28:51;;;;;;;3.65;0.88;;;6.10;73.40;;;;;;10042423;28;20555;-70
2020/12/28 16:33:42;;;;;;;1.80;0.80;;;6.10;73.60;;;;;;10045331;28;20036;-71
2020/12/28 16:38:32;;;;;;;0.88;0.43;;;5.90;73.60;;;;;;10036370;28;20032;-70
2020/12/28 16:43:23;;;;;;;2.67;0.50;;;5.90;74.20;;;;;;10041375;28;20559;-71
2020/12/28 16:48:13;;;;;;;2.40;0.85;;;5.80;74.30;;;;;;10045655;28;20531;-70
2020/12/28 16:53:04;;;;;;;0.85;0.55;;;5.80;74.30;;;;;;10045015;28;20065;-70
2020/12/28 16:57:55;;;;;;;2.38;0.75;;;5.70;74.50;;;;;;10043612;28;20025;-70
2020/12/28 17:02:46;;;;;;;2.03;0.90;;;5.70;75.10;;;;;;10040835;28;20022;-70
2020/12/28 17:07:39;;;;;;;0.68;0.50;;;5.70;74.40;;;;;;10043855;28;20032;-70
2020/12/28 17:12:30;;;;;;;1.02;0.50;;;5.60;75.30;;;;;;10043673;28;20493;-71
2020/12/28 17:17:26;;;;;;;1.00;0.70;;;5.60;74.60;;;;;;10044022;28;20155;-71
2020/12/28 17:22:16;;;;;;;1.88;0.85;;;5.50;74.70;;;;;;10046635;28;20046;-71
2020/12/28 17:27:08;;;;;;;4.07;1.30;;;5.50;74.90;;;;;;10045008;28;20509;-71
2020/12/28 17:31:59;;;;;;;2.08;1.45;;;5.40;74.60;;;;;;10044511;28;20127;-71
2020/12/28 17:36:50;;;;;;;2.72;2.13;;;5.30;74.60;;;;;;10044089;28;20242;-71
2020/12/28 17:41:41;;;;;;;5.28;1.83;;;5.30;74.80;;;;;;10040024;28;20087;-71
2020/12/28 17:46:33;;;;;;;3.80;2.08;;;5.30;74.60;;;;;;10051187;28;20029;-72
2020/12/28 17:51:24;;;;;;;8.48;3.85;;;5.20;74.70;;;;;;10050404;28;20026;-70
2020/12/28 17:56:22;;;;;;;7.55;2.85;;;5.20;74.60;;;;;;10050615;28;20032;-71
2020/12/28 18:01:17;;;;;;;7.10;3.05;;;5.10;74.70;;;;;;10033587;28;20036;-74
2020/12/28 18:06:12;;;;;;;6.10;3.28;;;5.20;74.70;;;;;;10032564;28;20407;-72
2020/12/28 18:11:03;;;;;;;5.03;1.92;;;5.10;74.60;;;;;;10031047;28;20037;-71
2020/12/28 18:15:53;;;;;;;2.63;1.52;;;5.10;74.60;;;;;;10034667;28;20037;-69
2020/12/28 18:20:44;;;;;;;5.15;2.08;;;5.10;74.50;;;;;;10036944;28;20049;-71
2020/12/28 18:25:35;;;;;;;3.35;1.30;;;5.00;74.50;;;;;;10046625;28;20037;-70
2020/12/28 18:30:25;;;;;;;4.07;1.98;;;5.00;74.60;;;;;;10046588;28;20071;-72
2020/12/28 18:35:18;;;;;;;3.05;1.48;;;5.00;74.40;;;;;;10036771;28;20080;-71
2020/12/28 18:40:09;;;;;;;2.25;1.50;;;5.00;74.30;;;;;;10043932;28;20402;-70
2020/12/28 18:44:59;;;;;;;2.65;1.42;;;5.10;74.20;;;;;;10050993;28;20029;-69
2020/12/28 18:49:50;;;;;;;1.90;1.10;;;5.10;74.30;;;;;;10034998;28;20039;-69
2020/12/28 18:54:40;;;;;;;3.05;1.08;;;5.20;74.40;;;;;;10041205;28;20029;-69
2020/12/28 18:59:32;;;;;;;5.35;2.03;;;5.20;74.10;;;;;;10045627;28;20018;-69
2020/12/28 19:04:24;;;;;;;1.83;1.02;;;5.30;74.00;;;;;;10044611;28;20057;-71
2020/12/28 19:09:14;;;;;;;2.45;1.80;;;5.40;73.90;;;;;;10044126;28;20135;-68
2020/12/28 19:14:05;;;;;;;3.88;1.90;;;5.40;73.90;;;;;;10048167;28;20037;-67
2020/12/28 19:18:55;;;;;;;6.60;2.40;;;5.40;73.80;;;;;;10039643;28;20038;-68
2020/12/28 19:23:47;;;;;;;3.50;1.63;;;5.50;73.70;;;;;;10037445;28;20025;-70
2020/12/28 19:28:38;;;;;;;4.85;2.03;;;5.60;73.70;;;;;;10045238;28;20108;-68
2020/12/28 19:33:28;;;;;;;2.78;1.73;;;5.70;73.50;;;;;;10042247;28;20040;-68
2020/12/28 19:38:19;;;;;;;6.18;2.00;;;5.60;73.50;;;;;;10044297;28;20026;-68
2020/12/28 19:43:09;;;;;;;4.28;1.80;;;5.70;73.50;;;;;;10037574;28;20056;-73
2020/12/28 19:48:00;;;;;;;2.28;1.67;;;5.80;73.40;;;;;;10047810;28;20089;-73
2020/12/28 19:52:50;;;;;;;1.77;1.58;;;5.90;73.10;;;;;;10043705;28;20120;-72
2020/12/28 19:57:41;;;;;;;3.63;1.33;;;5.90;73.00;;;;;;10043565;28;21243;-65
2020/12/28 20:02:32;;;;;;;2.38;1.45;;;5.90;72.80;;;;;;10043641;28;20036;-71
2020/12/28 20:07:22;;;;;;;2.90;1.55;;;5.90;73.00;;;;;;10048663;28;20070;-69
2020/12/28 20:12:13;;;;;;;0.95;0.80;;;5.90;72.80;;;;;;10041185;28;20022;-69
2020/12/28 20:17:04;;;;;;;2.15;1.25;;;5.90;72.90;;;;;;10042420;28;20048;-69
2020/12/28 20:21:58;;;;;;;2.50;1.38;;;5.90;72.60;;;;;;10043585;28;20099;-72
2020/12/28 20:26:49;;;;;;;2.25;1.33;;;5.80;72.30;;;;;;10041022;28;20112;-73
2020/12/28 20:31:39;;;;;;;3.20;2.47;;;5.70;72.20;;;;;;10040073;28;20033;-69
2020/12/28 20:36:30;;;;;;;2.95;1.33;;;5.70;72.10;;;;;;10037036;28;20408;-68
2020/12/28 20:41:21;;;;;;;4.50;1.40;;;5.60;72.20;;;;;;10036551;28;20052;-71
2020/12/28 20:46:13;;;;;;;1.15;0.82;;;5.60;72.20;;;;;;10026275;28;20140;-71
2020/12/28 20:51:03;;;;;;;3.00;1.77;;;5.50;72.10;;;;;;10041254;28;20076;-74
2020/12/28 20:55:54;;;;;;;2.25;1.08;;;5.50;72.20;;;;;;10036755;28;20049;-72
2020/12/28 21:00:47;;;;;;;2.97;1.65;;;5.50;72.20;;;;;;10040773;28;20515;-69
2020/12/28 21:05:39;;;;;;;0.93;0.75;;;5.40;72.30;;;;;;10041932;28;20114;-70
2020/12/28 21:10:30;;;;;;;2.15;1.27;;;5.30;72.60;;;;;;10045490;28;20026;-69
2020/12/28 21:15:22;;;;;;;1.38;0.80;;;5.30;72.70;;;;;;10043153;28;20056;-69
2020/12/28 21:20:12;;;;;;;4.03;1.23;;;5.40;72.60;;;;;;10040772;28;20049;-72
2020/12/28 21:25:04;;;;;;;1.30;1.20;;;5.30;72.70;;;;;;10039491;28;20025;-65
2020/12/28 21:29:55;;;;;;;1.42;1.20;;;5.40;72.70;;;;;;10038978;28;20063;-65
2020/12/28 21:34:45;;;;;;;3.72;1.42;;;5.40;72.80;;;;;;10041163;28;20029;-64
2020/12/28 21:39:36;;;;;;;1.95;1.38;;;5.40;72.80;;;;;;10041635;28;20462;-70
2020/12/28 21:44:26;;;;;;;1.55;0.85;;;5.50;73.10;;;;;;10032751;28;20037;-70
2020/12/28 21:49:17;;;;;;;1.42;1.00;;;5.50;73.10;;;;;;10004879;28;20126;-72
2020/12/28 21:54:08;;;;;;;6.47;2.58;;;5.60;73.10;;;;;;10032039;28;20158;-69
2020/12/28 21:58:59;;;;;;;1.20;0.70;;;5.70;73.20;;;;;;10036888;28;20412;-70
2020/12/28 22:03:50;;;;;;;2.28;0.77;;;5.70;73.50;;;;;;10038598;28;20033;-66
2020/12/28 22:08:41;;;;;;;1.50;1.00;;;5.60;73.70;;;;;;10040422;28;20150;-65
2020/12/28 22:13:34;;;;;;;0.95;0.63;;;5.60;73.80;;;;;;10036131;28;20325;-65
2020/12/28 22:18:25;;;;;;;0.75;0.65;;;5.70;73.90;;;;;;10039432;28;20038;-65
2020/12/28 22:23:16;;;;;;;1.42;0.52;;;5.70;74.10;;;;;;10045864;28;20030;-69
2020/12/28 22:28:06;;;;;;;0.75;0.60;;;5.70;74.30;;;;;;10043638;28;20218;-65
2020/12/28 22:32:57;;;;;;;1.60;0.57;;;5.70;74.30;;;;;;10044741;28;20033;-71
2020/12/28 22:37:48;;;;;;;0.47;0.40;;;5.70;74.60;;;;;;10043168;28;20446;-66
2020/12/28 22:42:39;;;;;;;0.80;0.40;;;5.80;74.60;;;;;;10047515;28;20514;-66
2020/12/28 22:47:29;;;;;;;1.67;0.60;;;5.80;74.70;;;;;;10049226;28;20286;-69
2020/12/28 22:52:20;;;;;;;1.83;0.70;;;5.80;75.00;;;;;;10042561;28;20022;-65
2020/12/28 22:57:10;;;;;;;1.13;0.57;;;5.80;75.80;;;;;;10043838;28;20032;-66
2020/12/28 23:02:05;;;;;;;0.65;0.50;;;5.90;76.00;;;;;;10042637;28;20033;-66
2020/12/28 23:07:03;;;;;;;0.52;0.30;;;5.90;75.90;;;;;;10040709;28;20040;-70
2020/12/28 23:11:53;;;;;;;1.77;0.32;;;5.90;76.20;;;;;;10038496;28;20037;-69
2020/12/28 23:16:44;;;;;;;0.73;0.30;;;5.90;76.40;;;;;;10039067;28;20352;-70
2020/12/28 23:21:35;;;;;;;0.38;0.20;;;5.90;76.50;;;;;;10041091;28;20050;-70
2020/12/28 23:26:25;;;;;;;0.73;0.30;;;5.80;77.30;;;;;;10044583;28;20033;-69
2020/12/28 23:31:21;;;;;;;1.42;0.50;;;5.80;77.20;;;;;;10044975;28;20431;-70
2020/12/28 23:36:16;;;;;;;1.30;0.20;;;5.80;77.30;;;;;;10041603;28;20021;-69
2020/12/28 23:41:14;;;;;;;0.85;0.45;;;5.80;77.30;;;;;;10038113;28;20429;-71
2020/12/28 23:46:08;;;;;;;0.68;0.38;;;5.80;77.70;;;;;;10039298;28;20484;-69
2020/12/28 23:51:01;;;;;;;0.28;0.28;;;5.80;77.70;;;;;;10043609;28;20057;-69
2020/12/28 23:55:52;;;;;;;0.77;0.22;;;5.80;78.00;;;;;;10043598;28;20026;-68
